Time;durP1;ratioP1;P1;durP2;ratioP2;P2;SDS_P1;SDS_P2;PMS_P1;PMS_P2;Temp;Humidity;BMP_temperature;BMP_pressure;BME280_temperature;BME280_humidity;BME280_pressure;Samples;Min_cycle;Max_cycle;Signal;HPM_P1;HPM_P2
2021/07/08 00:01:47;;;;;;;14.43;10.18;;;14.90;99.90;;;;;;5034859;28;20502;-91
2021/07/08 00:04:14;;;;;;;14.38;10.77;;;14.90;99.90;;;;;;5035605;28;20042;-91
2021/07/08 00:06:41;;;;;;;12.90;10.40;;;14.90;99.90;;;;;;5051874;28;20403;-85
2021/07/08 00:09:09;;;;;;;14.85;10.38;;;14.90;99.90;;;;;;5051861;28;20045;-91
2021/07/08 00:11:37;;;;;;;11.82;10.18;;;14.80;99.90;;;;;;5069252;28;20057;-91
2021/07/08 00:14:05;;;;;;;13.43;10.65;;;14.80;99.90;;;;;;5051969;28;20486;-91
2021/07/08 00:16:34;;;;;;;14.25;10.77;;;14.80;99.90;;;;;;5052067;28;20041;-91
2021/07/08 00:19:01;;;;;;;14.50;10.43;;;14.80;99.90;;;;;;5034764;28;20124;-91
2021/07/08 00:21:28;;;;;;;11.88;10.23;;;14.80;99.90;;;;;;5051845;28;20061;-91
2021/07/08 00:23:55;;;;;;;13.93;9.80;;;14.70;99.90;;;;;;5035497;28;20057;-91
2021/07/08 00:26:22;;;;;;;16.15;10.85;;;14.70;99.90;;;;;;5035551;28;20049;-90
2021/07/08 00:28:48;;;;;;;12.48;9.77;;;14.70;99.90;;;;;;5034939;28;20061;-91
2021/07/08 00:31:15;;;;;;;17.60;11.52;;;14.70;99.90;;;;;;5019202;28;20057;-90
2021/07/08 00:33:42;;;;;;;16.83;10.80;;;14.60;99.90;;;;;;5035552;28;20069;-90
2021/07/08 00:36:09;;;;;;;14.38;11.15;;;14.60;99.90;;;;;;5035261;28;20053;-90
2021/07/08 00:38:36;;;;;;;15.85;11.45;;;14.60;99.90;;;;;;5035701;28;20041;-91
2021/07/08 00:41:03;;;;;;;15.02;11.00;;;14.60;99.90;;;;;;5051615;28;20401;-90
2021/07/08 00:43:30;;;;;;;17.27;12.75;;;14.60;99.90;;;;;;5035330;28;20064;-90
2021/07/08 00:45:58;;;;;;;17.42;12.68;;;14.60;99.90;;;;;;5051664;28;20054;-90
2021/07/08 00:48:25;;;;;;;22.75;12.98;;;14.60;99.90;;;;;;5051823;28;20084;-90
2021/07/08 00:50:52;;;;;;;17.75;13.18;;;14.60;99.90;;;;;;5035263;28;20049;-88
2021/07/08 00:53:21;;;;;;;16.70;12.48;;;14.50;99.90;;;;;;5051610;28;20087;-89
2021/07/08 00:56:01;;;;;;;17.15;12.43;;;14.50;99.90;;;;;;5051416;28;20057;-89
2021/07/08 00:58:28;;;;;;;20.73;11.88;;;14.50;99.90;;;;;;5035157;28;20057;-89
2021/07/08 01:00:55;;;;;;;16.27;11.10;;;14.50;99.90;;;;;;5050946;28;20045;-91
2021/07/08 01:03:22;;;;;;;20.65;11.85;;;14.50;99.90;;;;;;5034747;28;20042;-90
2021/07/08 01:05:54;;;;;;;18.13;11.98;;;14.50;99.90;;;;;;5050797;28;20133;-89
2021/07/08 01:08:22;;;;;;;12.95;10.90;;;14.50;99.90;;;;;;5051274;28;20046;-91
2021/07/08 01:10:51;;;;;;;14.70;11.43;;;14.40;99.90;;;;;;5051188;28;20600;-89
2021/07/08 01:13:20;;;;;;;18.08;10.98;;;14.40;99.90;;;;;;5036007;28;20049;-90
2021/07/08 01:15:47;;;;;;;14.35;10.93;;;14.40;99.90;;;;;;5072468;28;20128;-90
2021/07/08 01:18:14;;;;;;;16.48;10.93;;;14.40;99.90;;;;;;5055194;28;20124;-90
2021/07/08 01:20:41;;;;;;;13.75;10.45;;;14.40;99.90;;;;;;5039209;28;20065;-90
2021/07/08 01:23:08;;;;;;;13.35;10.65;;;14.30;99.90;;;;;;5038604;28;20045;-90
2021/07/08 01:25:38;;;;;;;14.10;10.10;;;14.30;99.90;;;;;;5038693;28;20077;-90
2021/07/08 01:28:06;;;;;;;15.32;11.73;;;14.30;99.90;;;;;;5038129;28;20072;-89
2021/07/08 01:30:34;;;;;;;15.18;11.27;;;14.30;99.90;;;;;;5038634;28;20064;-90
2021/07/08 01:33:02;;;;;;;19.10;12.00;;;14.30;99.90;;;;;;5038076;28;20482;-90
2021/07/08 01:35:29;;;;;;;16.27;11.20;;;14.30;99.90;;;;;;5054497;28;20050;-89
2021/07/08 01:37:56;;;;;;;14.00;10.88;;;14.20;99.90;;;;;;5072138;28;20096;-89
2021/07/08 01:40:23;;;;;;;19.40;12.65;;;14.20;99.90;;;;;;5038675;28;20490;-91
2021/07/08 01:42:50;;;;;;;14.43;11.68;;;14.20;99.90;;;;;;5054934;28;20045;-91
2021/07/08 01:45:19;;;;;;;20.50;13.57;;;14.20;99.90;;;;;;5054604;28;20102;-90
2021/07/08 01:47:47;;;;;;;17.55;12.55;;;14.20;99.90;;;;;;5038115;28;20045;-90
2021/07/08 01:50:17;;;;;;;16.52;12.40;;;14.20;99.90;;;;;;5054067;28;20049;-90
2021/07/08 01:52:45;;;;;;;19.48;12.68;;;14.20;99.90;;;;;;5054687;28;20402;-91
2021/07/08 01:55:12;;;;;;;18.92;13.23;;;14.30;99.90;;;;;;5038051;28;20136;-90
2021/07/08 01:57:44;;;;;;;17.00;13.23;;;14.30;99.90;;;;;;5054826;28;20046;-89
2021/07/08 02:00:12;;;;;;;15.80;13.48;;;14.30;99.90;;;;;;5037894;28;20046;-90
2021/07/08 02:02:40;;;;;;;21.73;14.25;;;14.30;99.90;;;;;;5054284;28;20044;-90
2021/07/08 02:05:08;;;;;;;20.67;14.10;;;14.40;99.90;;;;;;5071491;28;20057;-90
2021/07/08 02:07:35;;;;;;;17.58;14.40;;;14.40;99.90;;;;;;5054564;28;20609;-90
2021/07/08 02:10:07;;;;;;;19.02;14.85;;;14.40;99.90;;;;;;5054235;28;20037;-90
2021/07/08 02:12:34;;;;;;;23.25;15.93;;;14.40;99.90;;;;;;5071673;28;20437;-90
2021/07/08 02:15:01;;;;;;;19.95;15.43;;;14.40;99.90;;;;;;5071126;28;20045;-89
2021/07/08 02:17:28;;;;;;;19.92;14.52;;;14.40;99.90;;;;;;5037701;28;20037;-91
2021/07/08 02:19:55;;;;;;;22.05;15.35;;;14.40;99.90;;;;;;5037897;28;20052;-91
2021/07/08 02:22:22;;;;;;;17.73;13.88;;;14.40;99.90;;;;;;5037483;28;20053;-90
2021/07/08 02:24:49;;;;;;;18.25;13.82;;;14.50;99.90;;;;;;5053274;28;20124;-91
2021/07/08 02:27:16;;;;;;;19.23;13.68;;;14.50;99.90;;;;;;5037527;28;20053;-90
2021/07/08 02:29:43;;;;;;;16.70;13.13;;;14.60;99.90;;;;;;5037775;28;20041;-90
2021/07/08 02:32:10;;;;;;;19.13;14.20;;;14.60;99.90;;;;;;5037218;28;20099;-90
2021/07/08 02:34:38;;;;;;;16.35;13.50;;;14.70;99.90;;;;;;5037261;28;20045;-90
2021/07/08 02:37:06;;;;;;;18.80;15.02;;;14.70;99.90;;;;;;5037206;28;20453;-90
2021/07/08 02:39:34;;;;;;;18.25;13.85;;;14.70;99.90;;;;;;5054028;28;20046;-91
2021/07/08 02:42:03;;;;;;;17.23;12.48;;;14.70;99.90;;;;;;5053296;28;20045;-91
2021/07/08 02:44:32;;;;;;;17.33;13.20;;;14.70;99.90;;;;;;5037608;28;20045;-90
2021/07/08 02:47:01;;;;;;;14.82;12.40;;;14.60;99.90;;;;;;5070955;28;20096;-90
2021/07/08 02:49:28;;;;;;;19.30;13.45;;;14.60;99.90;;;;;;5053554;28;20120;-90
2021/07/08 02:52:04;;;;;;;19.10;12.77;;;14.50;99.90;;;;;;5039601;28;20049;-89
2021/07/08 02:54:32;;;;;;;19.73;13.57;;;14.50;99.90;;;;;;5053476;28;20409;-90
2021/07/08 02:57:00;;;;;;;18.23;13.43;;;14.50;99.90;;;;;;5037040;28;20083;-90
2021/07/08 02:59:26;;;;;;;16.05;12.57;;;14.50;99.90;;;;;;5036873;28;20053;-89
2021/07/08 03:01:53;;;;;;;20.23;13.27;;;14.50;99.90;;;;;;5070534;28;20048;-89
2021/07/08 03:04:21;;;;;;;23.67;12.70;;;14.50;99.90;;;;;;5036602;28;20042;-90
2021/07/08 03:06:48;;;;;;;18.30;13.35;;;14.50;99.90;;;;;;5052841;28;20124;-88
2021/07/08 03:09:14;;;;;;;17.85;14.15;;;14.50;99.90;;;;;;5036310;28;20041;-90
2021/07/08 03:11:41;;;;;;;16.88;12.85;;;14.50;99.90;;;;;;5052423;28;20092;-89
2021/07/08 03:14:08;;;;;;;17.33;13.93;;;14.50;99.90;;;;;;5036281;28;20493;-91
2021/07/08 03:16:35;;;;;;;16.77;12.98;;;14.50;99.90;;;;;;5052561;28;20052;-90
2021/07/08 03:19:13;;;;;;;18.40;13.70;;;14.40;99.90;;;;;;5053741;28;20045;-90
2021/07/08 03:21:40;;;;;;;14.55;12.63;;;14.40;99.90;;;;;;5035513;28;20037;-89
2021/07/08 03:24:07;;;;;;;17.02;12.60;;;14.40;99.90;;;;;;5035780;28;20077;-89
2021/07/08 03:26:34;;;;;;;16.27;12.75;;;14.40;99.90;;;;;;5036373;28;20038;-90
2021/07/08 03:29:03;;;;;;;18.17;13.38;;;14.40;99.90;;;;;;5036306;28;20045;-90
2021/07/08 03:31:30;;;;;;;16.77;11.98;;;14.40;99.90;;;;;;5052668;28;20437;-89
2021/07/08 03:33:56;;;;;;;19.05;12.73;;;14.30;99.90;;;;;;5036227;28;20107;-90
2021/07/08 03:36:23;;;;;;;16.55;12.30;;;14.30;99.90;;;;;;5052606;28;20071;-89
2021/07/08 03:38:50;;;;;;;16.20;13.43;;;14.30;99.90;;;;;;5070269;28;20102;-90
2021/07/08 03:41:17;;;;;;;17.65;12.90;;;14.20;99.90;;;;;;5036152;28;20065;-89
2021/07/08 03:43:45;;;;;;;17.15;12.80;;;14.20;99.90;;;;;;5036243;28;20104;-90
2021/07/08 03:46:12;;;;;;;16.00;12.95;;;14.10;99.90;;;;;;5052894;28;20041;-89
2021/07/08 03:48:39;;;;;;;18.42;12.27;;;14.10;99.90;;;;;;5036644;28;20054;-89
2021/07/08 03:51:06;;;;;;;17.42;11.93;;;14.10;99.90;;;;;;5036453;28;20052;-89
2021/07/08 03:53:33;;;;;;;14.63;10.85;;;14.10;99.90;;;;;;5035706;28;20394;-90
2021/07/08 03:56:00;;;;;;;17.02;11.73;;;14.10;99.90;;;;;;5052636;28;20037;-90
2021/07/08 03:58:27;;;;;;;16.80;12.02;;;14.10;99.90;;;;;;5036084;28;20100;-90
2021/07/08 04:00:56;;;;;;;15.20;12.20;;;14.10;99.90;;;;;;5036509;28;20045;-90
2021/07/08 04:03:23;;;;;;;14.40;12.63;;;14.00;99.90;;;;;;5035257;28;20060;-90
2021/07/08 04:05:50;;;;;;;16.77;12.73;;;14.00;99.90;;;;;;5035809;28;20049;-90
2021/07/08 04:08:17;;;;;;;17.52;12.27;;;14.00;99.90;;;;;;5035680;28;20505;-90
2021/07/08 04:10:45;;;;;;;22.13;12.82;;;14.00;99.90;;;;;;5035867;28;20069;-90
2021/07/08 04:13:17;;;;;;;16.67;13.70;;;14.00;99.90;;;;;;5035416;28;20042;-89
2021/07/08 04:15:46;;;;;;;16.88;12.27;;;14.00;99.90;;;;;;5052103;28;20060;-90
2021/07/08 04:18:13;;;;;;;16.98;12.45;;;14.00;99.90;;;;;;5035396;28;20046;-90
2021/07/08 04:21:00;;;;;;;16.60;12.63;;;14.10;99.90;;;;;;5041397;28;20053;-90
2021/07/08 04:23:27;;;;;;;19.65;12.50;;;14.10;99.90;;;;;;5051668;28;20050;-90
2021/07/08 04:25:54;;;;;;;16.23;14.02;;;14.20;99.90;;;;;;5051772;28;20041;-90
2021/07/08 04:28:23;;;;;;;18.17;13.50;;;14.20;99.90;;;;;;5051812;28;20482;-90
2021/07/08 04:30:50;;;;;;;21.98;15.20;;;14.30;99.90;;;;;;5035654;28;20092;-90
2021/07/08 04:33:18;;;;;;;17.25;14.43;;;14.40;99.90;;;;;;5035417;28;20045;-90
2021/07/08 04:35:45;;;;;;;20.95;15.77;;;14.50;99.90;;;;;;5051731;28;20053;-90
2021/07/08 04:38:13;;;;;;;19.42;15.82;;;14.60;99.90;;;;;;5035580;28;20384;-91
2021/07/08 04:41:01;;;;;;;17.23;14.20;;;14.80;99.90;;;;;;5027581;28;20049;-90
2021/07/08 04:43:28;;;;;;;21.88;15.75;;;14.90;99.90;;;;;;5034914;28;20041;-90
2021/07/08 04:45:55;;;;;;;21.90;16.05;;;14.90;99.90;;;;;;5051442;28;20049;-90
2021/07/08 04:48:28;;;;;;;18.23;14.38;;;15.00;99.90;;;;;;5039170;28;20049;-91
2021/07/08 04:50:55;;;;;;;23.08;14.98;;;15.10;99.90;;;;;;5058121;28;20148;-90
2021/07/08 04:53:22;;;;;;;18.33;14.15;;;15.20;99.90;;;;;;5041667;28;20048;-90
2021/07/08 04:55:49;;;;;;;24.05;16.10;;;15.20;99.90;;;;;;5041435;28;20053;-91
2021/07/08 04:58:16;;;;;;;17.35;14.10;;;15.20;99.90;;;;;;5041170;28;20057;-89
2021/07/08 05:00:43;;;;;;;18.65;14.95;;;15.20;99.90;;;;;;5042083;28;20438;-90
2021/07/08 05:03:10;;;;;;;17.80;14.23;;;15.30;99.90;;;;;;5041939;28;20049;-91
2021/07/08 05:05:37;;;;;;;17.73;13.15;;;15.30;99.90;;;;;;5042026;28;20060;-90
2021/07/08 05:08:05;;;;;;;16.23;13.70;;;15.30;99.90;;;;;;5041701;28;20076;-90
2021/07/08 05:10:32;;;;;;;14.93;13.18;;;15.30;99.90;;;;;;5041329;28;20474;-91
2021/07/08 05:13:00;;;;;;;16.98;13.35;;;15.30;99.90;;;;;;5076782;28;20041;-91
2021/07/08 05:15:27;;;;;;;16.75;14.45;;;15.30;99.90;;;;;;5041568;28;20497;-91
2021/07/08 05:17:53;;;;;;;19.75;13.98;;;15.40;99.90;;;;;;5041794;28;20042;-91
2021/07/08 05:20:20;;;;;;;16.08;13.68;;;15.40;99.90;;;;;;5058362;28;20486;-90
2021/07/08 05:22:49;;;;;;;19.90;14.35;;;15.40;99.90;;;;;;5041652;28;20076;-91
2021/07/08 05:25:17;;;;;;;18.42;14.35;;;15.40;99.90;;;;;;5041762;28;20053;-90
2021/07/08 05:27:44;;;;;;;16.85;13.77;;;15.50;99.90;;;;;;5075700;28;20060;-90
2021/07/08 05:30:11;;;;;;;16.27;13.35;;;15.60;99.90;;;;;;5057798;28;20057;-91
2021/07/08 05:32:39;;;;;;;18.20;13.13;;;15.70;99.90;;;;;;5041139;28;20045;-90
2021/07/08 05:35:06;;;;;;;19.20;13.65;;;15.70;99.90;;;;;;5041437;28;20041;-90
2021/07/08 05:37:34;;;;;;;19.92;13.48;;;15.80;99.90;;;;;;5041113;28;20041;-90
2021/07/08 05:40:00;;;;;;;21.15;14.65;;;15.80;99.90;;;;;;5040928;28;20044;-91
2021/07/08 05:42:27;;;;;;;22.58;14.13;;;15.80;99.90;;;;;;5040845;28;20045;-90
2021/07/08 05:44:55;;;;;;;20.58;14.73;;;15.90;99.90;;;;;;5057541;28;20045;-91
2021/07/08 05:47:21;;;;;;;19.63;14.93;;;16.00;99.90;;;;;;5041082;28;20077;-89
2021/07/08 05:49:48;;;;;;;18.30;15.05;;;16.10;99.90;;;;;;5041323;28;20045;-91
2021/07/08 05:52:16;;;;;;;23.75;14.43;;;16.10;99.90;;;;;;5041551;28;20552;-92
2021/07/08 05:54:43;;;;;;;20.15;15.02;;;16.20;99.90;;;;;;5057442;28;20041;-91
2021/07/08 05:57:10;;;;;;;18.30;13.68;;;16.20;99.90;;;;;;5057592;28;20057;-92
2021/07/08 05:59:36;;;;;;;20.05;12.63;;;16.30;99.90;;;;;;5039112;28;20045;-91
2021/07/08 06:02:03;;;;;;;19.17;14.73;;;16.30;99.90;;;;;;5042124;28;20069;-91
2021/07/08 06:04:30;;;;;;;18.27;13.27;;;16.40;99.90;;;;;;5038555;28;20045;-91
2021/07/08 06:06:57;;;;;;;19.13;12.20;;;16.40;99.90;;;;;;5054082;28;20068;-91
2021/07/08 06:09:24;;;;;;;18.30;13.00;;;16.50;99.90;;;;;;5037995;28;20144;-90
2021/07/08 06:11:51;;;;;;;17.20;12.18;;;16.50;99.90;;;;;;5038235;28;20128;-90
2021/07/08 06:14:18;;;;;;;16.50;12.70;;;16.60;99.90;;;;;;5038451;28;20124;-92
2021/07/08 06:16:44;;;;;;;19.10;11.85;;;16.60;99.90;;;;;;5045236;28;20465;-92
2021/07/08 06:19:11;;;;;;;16.88;11.43;;;16.70;99.90;;;;;;5037273;28;20123;-92
2021/07/08 06:21:38;;;;;;;17.15;11.57;;;16.80;99.90;;;;;;5037313;28;20045;-87
2021/07/08 06:24:08;;;;;;;17.45;12.93;;;16.90;99.90;;;;;;5053905;28;20049;-88
2021/07/08 06:26:35;;;;;;;15.05;11.55;;;16.90;99.90;;;;;;5070858;28;20073;-87
2021/07/08 06:29:02;;;;;;;14.45;10.93;;;17.00;99.90;;;;;;5070894;28;20038;-88
2021/07/08 06:31:29;;;;;;;18.45;13.07;;;17.10;99.90;;;;;;5053124;28;20041;-86
2021/07/08 06:33:56;;;;;;;15.02;11.30;;;17.20;99.90;;;;;;5053508;28;20045;-88
2021/07/08 06:36:23;;;;;;;15.63;10.40;;;17.20;99.90;;;;;;5036763;28;20060;-88
2021/07/08 06:38:50;;;;;;;16.75;11.18;;;17.30;99.90;;;;;;5036243;28;20481;-87
2021/07/08 06:41:17;;;;;;;15.23;11.18;;;17.40;99.90;;;;;;5052769;28;20057;-86
2021/07/08 06:43:44;;;;;;;13.57;11.00;;;17.50;99.90;;;;;;5070191;28;20053;-87
2021/07/08 06:46:17;;;;;;;13.50;11.70;;;17.60;99.90;;;;;;5033022;28;20402;-87
2021/07/08 06:48:46;;;;;;;17.48;11.73;;;17.70;99.90;;;;;;5037148;28;20076;-87
2021/07/08 06:51:13;;;;;;;15.10;11.02;;;17.80;99.90;;;;;;5037330;28;20136;-87
2021/07/08 06:53:40;;;;;;;14.85;11.75;;;17.90;99.90;;;;;;5036017;28;20083;-87
2021/07/08 06:56:07;;;;;;;14.65;12.02;;;18.00;99.90;;;;;;5032883;28;20049;-88
2021/07/08 06:58:33;;;;;;;17.85;10.93;;;18.20;99.90;;;;;;5013073;28;20061;-88
2021/07/08 07:01:00;;;;;;;14.95;10.63;;;18.30;99.90;;;;;;5044494;28;20073;-88
2021/07/08 07:03:27;;;;;;;13.98;10.15;;;18.40;99.90;;;;;;5032836;28;20049;-88
2021/07/08 07:05:54;;;;;;;11.93;10.23;;;18.50;99.90;;;;;;5016481;28;20048;-88
2021/07/08 07:08:21;;;;;;;15.00;10.13;;;18.60;99.90;;;;;;5033246;28;20054;-89
2021/07/08 07:10:47;;;;;;;12.05;9.68;;;18.70;99.90;;;;;;5035756;28;20117;-89
2021/07/08 07:13:14;;;;;;;15.80;9.52;;;18.90;99.90;;;;;;5036757;28;20042;-89
2021/07/08 07:15:41;;;;;;;14.30;9.50;;;19.00;99.90;;;;;;5036496;28;20405;-88
2021/07/08 07:18:08;;;;;;;9.98;8.90;;;19.10;99.90;;;;;;5053157;28;20053;-88
2021/07/08 07:20:36;;;;;;;14.32;9.07;;;19.20;99.90;;;;;;5052204;28;20041;-87
2021/07/08 07:23:03;;;;;;;16.30;9.18;;;19.30;99.90;;;;;;5069717;28;20044;-88
2021/07/08 07:25:31;;;;;;;11.85;7.90;;;19.30;99.90;;;;;;5068452;28;20079;-87
2021/07/08 07:27:58;;;;;;;10.82;8.00;;;19.40;99.90;;;;;;5051967;28;20066;-86
2021/07/08 07:30:27;;;;;;;15.15;8.30;;;19.40;99.90;;;;;;5039988;28;20042;-88
2021/07/08 07:32:55;;;;;;;12.07;8.23;;;19.50;99.90;;;;;;5048360;28;20050;-87
2021/07/08 07:35:22;;;;;;;9.10;7.70;;;19.70;99.90;;;;;;5048195;28;20054;-86
2021/07/08 07:37:50;;;;;;;9.75;7.68;;;19.80;99.90;;;;;;5031653;28;20049;-86
2021/07/08 07:40:17;;;;;;;10.32;6.95;;;19.90;99.90;;;;;;5032005;28;20042;-87
2021/07/08 07:42:45;;;;;;;10.60;6.80;;;20.10;99.90;;;;;;5031245;28;20096;-87
2021/07/08 07:45:12;;;;;;;11.85;8.05;;;20.20;99.90;;;;;;5049440;28;20045;-88
2021/07/08 07:47:39;;;;;;;11.15;7.28;;;20.30;99.90;;;;;;5016159;28;20042;-87
2021/07/08 07:50:07;;;;;;;10.75;7.38;;;20.40;99.90;;;;;;5032440;28;20046;-88
2021/07/08 07:52:35;;;;;;;10.07;6.60;;;20.50;99.90;;;;;;5032348;28;20129;-87
2021/07/08 07:55:02;;;;;;;10.43;7.68;;;20.60;99.90;;;;;;5015297;28;20050;-88
2021/07/08 07:57:29;;;;;;;10.85;6.35;;;20.70;99.90;;;;;;5015142;28;20410;-87
2021/07/08 07:59:56;;;;;;;8.88;6.32;;;20.80;99.90;;;;;;5016063;28;20041;-87
2021/07/08 08:02:23;;;;;;;8.45;5.63;;;20.90;99.90;;;;;;5024370;28;20045;-90
2021/07/08 08:04:56;;;;;;;12.10;5.82;;;21.00;99.90;;;;;;5036073;28;20038;-90
2021/07/08 08:10:08;;;;;;;8.77;4.53;;;21.10;99.90;;;;;;5054790;28;20045;-90
2021/07/08 08:12:35;;;;;;;9.32;4.90;;;21.20;99.90;;;;;;5035958;28;20401;-90
2021/07/08 08:15:05;;;;;;;7.78;4.30;;;21.20;99.90;;;;;;5035603;28;20049;-90
2021/07/08 08:17:33;;;;;;;8.98;4.85;;;21.30;99.90;;;;;;5039267;28;20051;-90
2021/07/08 08:20:00;;;;;;;10.10;4.50;;;21.40;99.90;;;;;;5012667;28;20398;-91
2021/07/08 08:22:27;;;;;;;8.20;3.60;;;21.40;99.90;;;;;;5011896;28;20129;-87
2021/07/08 08:24:54;;;;;;;9.38;3.92;;;21.50;99.90;;;;;;5014512;28;20104;-87
2021/07/08 08:27:21;;;;;;;8.25;4.13;;;21.60;99.90;;;;;;5031462;28;20081;-87
2021/07/08 08:29:49;;;;;;;7.30;4.00;;;21.60;99.90;;;;;;5030719;28;20049;-87
2021/07/08 08:32:16;;;;;;;5.70;3.72;;;21.70;99.90;;;;;;5014778;28;20046;-87
2021/07/08 08:34:42;;;;;;;7.25;3.70;;;21.60;99.90;;;;;;5030490;28;20112;-85
2021/07/08 08:37:10;;;;;;;6.13;3.28;;;21.70;99.90;;;;;;5031020;28;20048;-87
2021/07/08 08:39:37;;;;;;;7.53;3.63;;;21.80;99.90;;;;;;5031030;28;20050;-87
2021/07/08 08:42:10;;;;;;;9.65;4.03;;;22.00;99.90;;;;;;5030879;28;20056;-87
2021/07/08 08:44:37;;;;;;;7.45;3.50;;;22.00;99.90;;;;;;5048776;28;20061;-88
2021/07/08 08:47:10;;;;;;;5.57;3.47;;;22.10;99.90;;;;;;5030468;28;20501;-86
2021/07/08 08:49:41;;;;;;;9.43;3.30;;;22.30;99.90;;;;;;5047248;28;20052;-87
2021/07/08 08:52:10;;;;;;;6.30;3.72;;;22.40;99.90;;;;;;5047180;28;20068;-87
2021/07/08 08:54:40;;;;;;;8.05;3.90;;;22.60;99.90;;;;;;5047101;28;20429;-86
2021/07/08 08:57:07;;;;;;;7.50;4.20;;;22.80;99.90;;;;;;5059965;28;20112;-87
2021/07/08 08:59:35;;;;;;;8.57;3.95;;;22.90;99.90;;;;;;5067322;28;20450;-88
2021/07/08 09:02:19;;;;;;;9.13;3.70;;;23.10;99.90;;;;;;5066679;28;20046;-87
2021/07/08 09:04:48;;;;;;;6.00;3.17;;;23.10;99.90;;;;;;5070395;28;20512;-88
2021/07/08 09:07:33;;;;;;;11.90;3.92;;;23.30;99.90;;;;;;5071284;28;20101;-88
2021/07/08 09:10:10;;;;;;;7.03;2.70;;;23.40;99.90;;;;;;5054573;28;20052;-84
2021/07/08 09:12:37;;;;;;;6.68;3.58;;;23.60;99.90;;;;;;5037821;28;20497;-85
2021/07/08 09:15:15;;;;;;;5.60;2.40;;;23.70;99.90;;;;;;5070003;28;20049;-85
2021/07/08 09:17:43;;;;;;;4.85;2.53;;;23.80;99.90;;;;;;5050249;28;20045;-85
2021/07/08 09:20:14;;;;;;;4.32;2.00;;;24.00;99.90;;;;;;5050412;28;20069;-84
2021/07/08 09:22:45;;;;;;;5.65;2.33;;;24.10;99.90;;;;;;5050470;28;20107;-84
2021/07/08 09:25:21;;;;;;;5.65;2.80;;;24.20;99.90;;;;;;5050571;28;20049;-85
2021/07/08 09:28:08;;;;;;;6.60;2.15;;;24.40;99.90;;;;;;5066880;28;20401;-84
2021/07/08 09:30:35;;;;;;;5.63;2.45;;;24.50;99.90;;;;;;5068069;28;20049;-84
2021/07/08 09:33:02;;;;;;;8.93;4.65;;;24.60;99.90;;;;;;5066650;28;20451;-84
2021/07/08 09:35:39;;;;;;;8.70;5.05;;;24.80;99.90;;;;;;5069265;28;20072;-86
2021/07/08 09:38:11;;;;;;;7.60;5.00;;;24.80;99.90;;;;;;5053791;28;20045;-84
2021/07/08 09:40:40;;;;;;;8.65;5.10;;;24.50;99.90;;;;;;5053793;28;20120;-87
2021/07/08 09:43:08;;;;;;;9.95;5.05;;;24.50;99.90;;;;;;5053724;28;20050;-87
2021/07/08 09:45:46;;;;;;;8.55;4.50;;;24.40;99.90;;;;;;5053082;28;20045;-84
2021/07/08 09:48:19;;;;;;;6.68;4.53;;;24.30;99.90;;;;;;5056132;28;20120;-86
2021/07/08 09:50:47;;;;;;;10.05;4.40;;;24.10;99.90;;;;;;5057570;28;20048;-86
2021/07/08 09:53:17;;;;;;;8.52;4.53;;;24.10;99.90;;;;;;5073613;28;20398;-85
2021/07/08 09:58:57;;;;;;;9.50;4.32;;;23.90;99.90;;;;;;5092665;28;20119;-86
2021/07/08 10:01:26;;;;;;;8.05;4.68;;;23.90;99.90;;;;;;5093656;28;20405;-84
2021/07/08 10:03:53;;;;;;;9.20;4.35;;;24.10;99.90;;;;;;5056465;28;20125;-86
2021/07/08 10:06:21;;;;;;;7.05;4.40;;;24.20;99.90;;;;;;5072923;28;20041;-86
2021/07/08 10:08:49;;;;;;;6.40;3.70;;;24.30;99.90;;;;;;5091316;28;20041;-85
2021/07/08 10:11:17;;;;;;;7.75;4.50;;;24.50;99.90;;;;;;5056539;28;20041;-85
2021/07/08 10:13:44;;;;;;;13.40;4.70;;;24.50;99.90;;;;;;5073541;28;20045;-84
2021/07/08 10:16:13;;;;;;;9.32;4.43;;;24.40;99.90;;;;;;5072297;28;20044;-79
2021/07/08 10:18:42;;;;;;;8.35;4.18;;;24.40;99.90;;;;;;5071424;28;20049;-80
2021/07/08 10:21:10;;;;;;;7.78;4.03;;;24.30;99.90;;;;;;5052783;28;20423;-82
2021/07/08 10:23:38;;;;;;;7.38;4.40;;;24.20;99.90;;;;;;5070501;28;20050;-82
2021/07/08 10:26:09;;;;;;;8.45;4.25;;;24.20;99.90;;;;;;5069924;28;20042;-82
2021/07/08 10:28:40;;;;;;;12.27;5.40;;;24.10;99.90;;;;;;5052607;28;20049;-82
2021/07/08 10:31:11;;;;;;;8.07;4.90;;;24.00;99.90;;;;;;5069647;28;20107;-82
2021/07/08 10:33:38;;;;;;;10.60;4.93;;;24.00;99.90;;;;;;5069962;28;20485;-84
2021/07/08 10:36:31;;;;;;;7.90;4.72;;;23.70;99.90;;;;;;5053724;28;20139;-94
2021/07/08 10:39:15;;;;;;;6.18;4.30;;;23.60;99.90;;;;;;5038730;28;20084;-91
2021/07/08 10:41:44;;;;;;;8.25;4.93;;;23.60;99.90;;;;;;5037142;28;20053;-85
2021/07/08 10:44:41;;;;;;;7.63;4.25;;;23.40;99.90;;;;;;5070177;28;20120;-86
2021/07/08 10:47:37;;;;;;;10.52;4.40;;;23.30;99.90;;;;;;5035782;28;20048;-85
2021/07/08 10:50:08;;;;;;;8.48;4.28;;;23.00;99.90;;;;;;5069072;28;20085;-86
2021/07/08 10:52:46;;;;;;;7.28;4.55;;;23.00;99.90;;;;;;5069136;28;20045;-86
2021/07/08 10:55:41;;;;;;;7.30;4.28;;;22.80;99.90;;;;;;5068659;28;20055;-86
2021/07/08 10:58:38;;;;;;;8.38;3.95;;;22.80;99.90;;;;;;5049898;28;20057;-86
2021/07/08 11:01:09;;;;;;;5.97;4.28;;;22.70;99.90;;;;;;5074639;28;20037;-85
2021/07/08 11:03:45;;;;;;;8.15;5.10;;;22.70;99.90;;;;;;5072450;28;20049;-86
2021/07/08 11:06:25;;;;;;;7.15;4.40;;;22.80;99.90;;;;;;5071931;28;20072;-86
2021/07/08 11:09:03;;;;;;;8.95;4.82;;;23.00;99.90;;;;;;5072535;28;20049;-86
2021/07/08 11:11:33;;;;;;;9.05;5.75;;;23.40;99.90;;;;;;5072822;28;20382;-85
2021/07/08 11:14:20;;;;;;;7.10;5.28;;;23.40;99.90;;;;;;5072262;28;20049;-85
2021/07/08 11:16:58;;;;;;;8.40;5.32;;;23.50;99.90;;;;;;5068472;28;20060;-85
2021/07/08 11:19:25;;;;;;;9.30;5.45;;;23.50;99.90;;;;;;5052332;28;20037;-86
2021/07/08 11:21:56;;;;;;;8.82;5.20;;;23.40;99.90;;;;;;5052355;28;20042;-86
2021/07/08 11:24:27;;;;;;;9.10;5.82;;;23.30;99.90;;;;;;5051742;28;20050;-86
2021/07/08 11:26:58;;;;;;;9.82;5.70;;;23.00;99.90;;;;;;5088845;28;20060;-86
2021/07/08 11:29:43;;;;;;;8.75;5.13;;;23.00;99.90;;;;;;5071729;28;20099;-85
2021/07/08 11:32:28;;;;;;;12.93;6.80;;;22.90;99.90;;;;;;5072039;28;20119;-86
2021/07/08 11:34:57;;;;;;;9.27;7.10;;;22.70;99.90;;;;;;5089830;28;20074;-86
2021/07/08 11:37:39;;;;;;;11.60;8.13;;;22.70;99.90;;;;;;5071715;28;20049;-87
2021/07/08 11:40:18;;;;;;;14.57;8.60;;;22.60;99.90;;;;;;5031734;28;20137;-86
2021/07/08 11:42:47;;;;;;;13.70;9.77;;;22.60;99.90;;;;;;5048423;28;20046;-86
2021/07/08 11:45:26;;;;;;;13.00;9.85;;;22.50;99.90;;;;;;5049584;28;20131;-86
2021/07/08 11:47:55;;;;;;;14.45;11.07;;;22.60;99.90;;;;;;5060839;28;20065;-86
2021/07/08 11:50:25;;;;;;;14.07;10.90;;;22.50;99.90;;;;;;5067829;28;20049;-83
2021/07/08 11:53:11;;;;;;;13.30;9.05;;;22.40;99.90;;;;;;5071472;28;20460;-84
2021/07/08 11:55:50;;;;;;;11.07;8.65;;;22.40;99.90;;;;;;5089491;28;20049;-87
2021/07/08 11:58:27;;;;;;;10.18;8.05;;;22.30;99.90;;;;;;5053629;28;20079;-88
2021/07/08 12:00:56;;;;;;;9.88;7.25;;;22.20;99.90;;;;;;5084102;28;20398;-86
2021/07/08 12:03:26;;;;;;;9.00;6.63;;;22.20;99.90;;;;;;5071096;28;20048;-86
2021/07/08 12:06:03;;;;;;;9.93;6.47;;;22.10;99.90;;;;;;5071288;28;20040;-85
2021/07/08 12:08:39;;;;;;;8.50;5.70;;;22.10;99.90;;;;;;5086564;28;20440;-86
2021/07/08 12:11:09;;;;;;;9.40;5.93;;;22.10;99.90;;;;;;5068010;28;20044;-86
2021/07/08 12:13:38;;;;;;;8.43;5.55;;;22.10;99.90;;;;;;5067821;28;20044;-85
2021/07/08 12:16:07;;;;;;;7.82;5.20;;;22.30;99.90;;;;;;5067647;28;20490;-86
2021/07/08 12:18:42;;;;;;;7.50;4.90;;;22.30;99.90;;;;;;5065104;28;20041;-86
2021/07/08 12:21:24;;;;;;;6.53;4.57;;;22.30;99.90;;;;;;5067680;28;20129;-86
2021/07/08 12:23:53;;;;;;;6.30;4.32;;;22.30;99.90;;;;;;5069929;28;20091;-87
2021/07/08 12:26:31;;;;;;;10.10;8.13;;;22.40;99.90;;;;;;5088469;28;20048;-85
2021/07/08 12:29:21;;;;;;;15.00;12.07;;;22.40;99.90;;;;;;5052479;28;20091;-86
2021/07/08 12:31:49;;;;;;;9.82;8.15;;;22.30;99.90;;;;;;5051442;28;20081;-86
2021/07/08 12:34:18;;;;;;;12.23;5.20;;;22.20;99.90;;;;;;5067181;28;20045;-86
2021/07/08 12:36:45;;;;;;;8.20;5.05;;;22.20;99.90;;;;;;5035197;28;20053;-85
2021/07/08 12:39:23;;;;;;;7.18;4.80;;;22.10;99.90;;;;;;5052348;28;20045;-85
2021/07/08 12:41:51;;;;;;;7.18;4.95;;;22.00;99.90;;;;;;5071142;28;20053;-85
2021/07/08 12:44:18;;;;;;;8.75;5.55;;;21.90;99.90;;;;;;5051855;28;20381;-85
2021/07/08 12:46:45;;;;;;;8.00;5.10;;;21.80;99.90;;;;;;5050909;28;20044;-85
2021/07/08 12:49:14;;;;;;;8.57;5.15;;;21.80;99.90;;;;;;5068249;28;20100;-85
2021/07/08 12:51:42;;;;;;;16.20;6.47;;;21.70;99.90;;;;;;5047459;28;20072;-84